Bethpage, TN (37022)

1:02 PM CST on February 14, 2016 (GMT -0600)
Emerald Acres | | Change Station
CLOSE
Current Station
Personal Weather Station
Location: Castalian Springs, TN
Elevation: 531 ft
Nearby Weather Stations
Active Advisory: Winter Weather Advisory

Elev 531 ft 36.43 °N, 86.33 °W | Updated 11 seconds ago

Snow
Snow
29.3 °F
Feels Like 24 °F
N
4.9
Wind Variable Wind from ESE
Gusts 7.4 mph

Today
High -- | Low -- °F
--% Chance of Precip.
Yesterday
High -- | Low -- °F
Precip. -- in
Pressure 30.20 in
Visibility 0.2 miles
Clouds
Windchill 24 °F
Dew Point 12 °F
Humidity 47%
Rainfall 0.00 in
Snow Depth Not available.
6:34 AM 5:24 PM
Waxing Crescent, 44% visible
METAR KBWG 141853Z AUTO 12008KT 1/4SM SN FZFG VV007 M05/M06 A3018 RMK AO2 SLP227 P0005 T10501061
Pressure 30.20 in
Visibility 0.2 miles
Clouds
Windchill 24 °F
Dew Point 12 °F
Humidity 47%
Rainfall 0.00 in
Snow Depth Not available.
6:34 AM 5:24 PM
Waxing Crescent, 44% visible
METAR KBWG 141853Z AUTO 12008KT 1/4SM SN FZFG VV007 M05/M06 A3018 RMK AO2 SLP227 P0005 T10501061

10-Day Weather Forecast

Almanac

Astronomy

Feb. 14, 2016 Rise Set
Actual Time
Civil Twilight
Nautical Twilight
Astronomical Twilight
Moon
Length of Visible Light
Length of Day
Tomorrow will be .
, % of the Moon is Illuminated

Today's Extremes

State Highs State Lows

Community

WunderPhotos

Upload Photos

1,892,874 photos uploaded!

WunderBlog® & News

Nearby

Air Quality

  Air Quality AQ Index Pollutant
Not available.

Snow Depth

Station Depth Elevation

Earthquake Activity

City Distance Mag. Time & Date
Minimum magnitude displayed is 2.5.

Coastal Water Temperatures

Place Temperature

Stations

Nearby Weather Stations

Station Location Temp. Windchill Dew Point Humidity Wind Precip. Elev Updated Type
                   

Watches & Warnings

Winter Weather Advisory
Issued: 9:08 AM CST Feb. 14, 2016 – National Weather Service

... Winter Weather Advisory remains in effect until midnight CST
tonight...

* timing... now until midnight tonight.

* Main impact... hazardous travel conditions across the advisory
area due to a wintry mix of snow... sleet and some freezing
rain.

* Accumulations... around 1 inch of snow along Interstate 40...
with 2 to 3 inches of snow possible north of I 40... toward the
Kentucky border. Less than one tenth of an inch of ice
possible from freezing rain.

Precautionary/preparedness actions...

A Winter Weather Advisory means that periods of snow... sleet... or
freezing rain will cause travel difficulties. Be prepared for
slippery roads and limited visibilities... and use caution while
driving.